Time;durP1;ratioP1;P1;durP2;ratioP2;P2;SDS_P1;SDS_P2;PMS_P1;PMS_P2;Temp;Humidity;BMP_temperature;BMP_pressure;BME280_temperature;BME280_humidity;BME280_pressure;Samples;Min_cycle;Max_cycle;Signal;HPM_P1;HPM_P2
2022/08/26 00:01:31;;;;;;;39.20;32.20;;;;;;;22.11;61.68;100227.16;5095634;28;20360;-57
2022/08/26 00:03:57;;;;;;;43.90;32.20;;;;;;;22.10;61.50;100221.00;5104453;28;20039;-57
2022/08/26 00:06:24;;;;;;;41.95;31.40;;;;;;;22.08;61.60;100222.91;5103045;28;20050;-56
2022/08/26 00:08:49;;;;;;;42.00;33.03;;;;;;;22.05;61.79;100218.66;5092132;28;20035;-57
2022/08/26 00:11:15;;;;;;;42.38;32.10;;;;;;;22.03;62.15;100219.69;5083858;28;20056;-57
2022/08/26 00:13:41;;;;;;;43.58;32.83;;;;;;;22.09;61.78;100218.47;5083858;28;20021;-57
2022/08/26 00:16:08;;;;;;;44.17;33.58;;;;;;;22.01;61.88;100224.22;5083809;28;20027;-56
2022/08/26 00:18:35;;;;;;;43.33;34.10;;;;;;;22.04;61.80;100226.66;5083778;28;20213;-57
2022/08/26 00:21:00;;;;;;;45.50;34.97;;;;;;;21.95;62.25;100222.78;5084027;28;20024;-57
2022/08/26 00:23:26;;;;;;;46.83;35.22;;;;;;;21.91;61.92;100216.00;5083507;28;20209;-56
2022/08/26 00:25:52;;;;;;;48.45;36.78;;;;;;;21.95;62.15;100227.19;5083664;28;20028;-57
2022/08/26 00:28:18;;;;;;;41.33;34.90;;;;;;;21.92;61.90;100222.13;5083765;28;20186;-56
2022/08/26 00:30:46;;;;;;;48.13;37.88;;;;;;;21.93;62.03;100229.09;5083660;28;20094;-56
2022/08/26 00:33:13;;;;;;;43.33;36.15;;;;;;;21.99;61.75;100228.72;5083595;28;20055;-57
2022/08/26 00:35:39;;;;;;;50.60;37.08;;;;;;;21.94;62.20;100234.28;5083690;28;20078;-57
2022/08/26 00:38:05;;;;;;;48.42;35.53;;;;;;;21.93;62.32;100227.28;5083870;28;20024;-56
2022/08/26 00:40:34;;;;;;;40.83;34.55;;;;;;;21.98;62.55;100238.44;5083385;28;20035;-57
2022/08/26 00:43:01;;;;;;;43.00;34.33;;;;;;;22.00;62.10;100238.34;5083489;28;20335;-57
2022/08/26 00:45:38;;;;;;;43.75;33.28;;;;;;;22.02;62.52;100244.38;5083451;28;20091;-57
2022/08/26 00:48:06;;;;;;;39.42;32.85;;;;;;;21.92;62.95;100236.16;5083669;28;20096;-58
2022/08/26 00:50:38;;;;;;;39.55;32.83;;;;;;;21.63;63.09;100191.28;5083349;28;20069;-57
2022/08/26 00:53:20;;;;;;;39.90;32.28;;;;;;;21.58;62.96;100187.22;5083070;28;20021;-57
2022/08/26 00:55:58;;;;;;;48.55;36.13;;;;;;;21.86;63.46;100240.03;5083305;28;20060;-57
2022/08/26 00:58:26;;;;;;;44.65;35.95;;;;;;;21.84;63.02;100230.50;5083082;28;20039;-57
2022/08/26 01:00:52;;;;;;;44.22;35.83;;;;;;;21.80;62.76;100219.28;5083487;28;20032;-57
2022/08/26 01:03:23;;;;;;;50.83;39.58;;;;;;;21.57;63.25;100191.66;5083370;28;20044;-57
2022/08/26 01:05:50;;;;;;;54.83;41.78;;;;;;;21.80;62.80;100236.91;5083248;28;20108;-57
2022/08/26 01:08:16;;;;;;;52.85;40.28;;;;;;;21.82;62.93;100229.72;5083283;28;20328;-57
2022/08/26 01:10:42;;;;;;;52.03;40.42;;;;;;;21.84;62.76;100231.34;5083234;28;20029;-57
2022/08/26 01:13:10;;;;;;;52.30;41.60;;;;;;;21.78;62.67;100231.72;5083293;28;20028;-57
2022/08/26 01:15:57;;;;;;;53.50;42.75;;;;;;;21.52;63.37;100199.84;5083154;28;20035;-57
2022/08/26 01:18:24;;;;;;;58.88;44.83;;;;;;;21.72;62.81;100221.53;5083136;28;20055;-58
2022/08/26 01:21:13;;;;;;;56.22;46.53;;;;;;;21.49;62.67;100184.16;5083183;28;20099;-58
2022/08/26 01:23:43;;;;;;;58.33;46.53;;;;;;;21.76;62.67;100224.81;5083270;28;20321;-58
2022/08/26 01:26:17;;;;;;;57.65;44.75;;;;;;;21.53;62.98;100191.00;5099338;28;20133;-58
2022/08/26 01:28:43;;;;;;;60.10;45.22;;;;;;;21.64;62.92;100221.13;5103494;28;20028;-58
2022/08/26 01:31:35;;;;;;;58.60;45.15;;;;;;;21.65;62.88;100228.97;5092015;28;20020;-57
2022/08/26 01:34:09;;;;;;;56.42;44.70;;;;;;;21.59;62.73;100216.16;5084103;28;20347;-57
2022/08/26 01:36:37;;;;;;;58.85;45.92;;;;;;;21.58;63.05;100224.97;5086964;28;20032;-57
2022/08/26 01:39:04;;;;;;;56.40;44.83;;;;;;;21.63;62.69;100229.97;5087060;28;20039;-57
2022/08/26 01:41:31;;;;;;;57.20;45.85;;;;;;;21.61;62.97;100227.44;5086839;28;20039;-57
2022/08/26 01:43:57;;;;;;;60.78;45.42;;;;;;;21.56;62.84;100213.66;5086862;28;20028;-57
2022/08/26 01:46:26;;;;;;;59.38;46.05;;;;;;;21.34;63.10;100179.78;5086762;28;20028;-58
2022/08/26 01:48:54;;;;;;;58.88;46.78;;;;;;;21.35;62.98;100173.59;5086702;28;20089;-57
2022/08/26 01:51:21;;;;;;;57.53;47.17;;;;;;;21.36;62.62;100176.13;5087301;28;20093;-58
2022/08/26 01:53:47;;;;;;;60.42;46.58;;;;;;;21.63;63.63;100232.63;5106971;28;20306;-57
2022/08/26 01:56:14;;;;;;;59.65;45.75;;;;;;;21.59;63.15;100225.81;5089104;28;20325;-57
2022/08/26 01:58:51;;;;;;;64.28;45.35;;;;;;;21.44;63.88;100207.31;5082041;28;20024;-57
2022/08/26 02:01:17;;;;;;;58.05;45.50;;;;;;;21.58;63.79;100229.38;5075052;28;20080;-57
2022/08/26 02:04:12;;;;;;;56.45;43.88;;;;;;;21.57;64.24;100238.25;5086638;28;20328;-57
2022/08/26 02:06:38;;;;;;;55.83;44.05;;;;;;;21.55;64.04;100230.44;5086400;28;20039;-57
2022/08/26 02:09:05;;;;;;;54.10;42.40;;;;;;;21.55;64.01;100236.56;5086439;28;20032;-57
2022/08/26 02:11:32;;;;;;;53.38;42.72;;;;;;;21.55;64.00;100235.72;5085159;28;20096;-57
2022/08/26 02:14:02;;;;;;;52.03;42.55;;;;;;;21.30;64.11;100199.34;5086272;28;20325;-57
2022/08/26 02:16:35;;;;;;;57.88;42.20;;;;;;;21.22;64.46;100194.53;5086160;28;20040;-58
2022/08/26 02:19:01;;;;;;;58.15;43.70;;;;;;;21.49;64.48;100246.56;5086031;28;20044;-57
2022/08/26 02:21:28;;;;;;;54.55;44.92;;;;;;;21.21;64.68;100201.56;5085964;28;20032;-57
2022/08/26 02:23:54;;;;;;;56.40;43.33;;;;;;;21.40;65.17;100239.19;5085661;28;20383;-57
2022/08/26 02:26:22;;;;;;;55.47;44.13;;;;;;;21.37;65.34;100237.59;5085701;28;20040;-57
2022/08/26 02:29:12;;;;;;;54.45;44.60;;;;;;;21.11;65.48;100194.31;5085881;28;20036;-57
2022/08/26 02:31:38;;;;;;;57.30;45.10;;;;;;;21.40;64.99;100242.69;5085944;28;20073;-57
2022/08/26 02:34:12;;;;;;;54.17;42.63;;;;;;;21.39;65.76;100246.25;5085953;28;20055;-56
2022/08/26 02:36:39;;;;;;;52.90;43.47;;;;;;;21.37;65.40;100240.22;5085687;28;20024;-57
2022/08/26 02:39:05;;;;;;;57.22;44.30;;;;;;;21.40;65.19;100244.47;5086055;28;20092;-58
2022/08/26 02:41:30;;;;;;;55.95;44.83;;;;;;;21.35;65.79;100242.94;5085813;28;20029;-57
2022/08/26 02:43:56;;;;;;;59.05;44.20;;;;;;;21.36;65.57;100247.28;5085498;28;20086;-58
2022/08/26 02:46:22;;;;;;;57.20;45.15;;;;;;;21.13;66.27;100219.59;5085045;28;20032;-57
2022/08/26 02:48:47;;;;;;;59.13;45.00;;;;;;;21.31;66.20;100245.84;5085538;28;20032;-57
2022/08/26 02:51:13;;;;;;;58.20;43.20;;;;;;;21.31;65.75;100243.22;5085506;28;20035;-57
2022/08/26 02:53:38;;;;;;;62.53;45.40;;;;;;;21.35;65.80;100247.38;5085454;28;20040;-57
2022/08/26 02:56:07;;;;;;;54.30;42.30;;;;;;;21.38;66.06;100253.31;5085353;28;20052;-57
2022/08/26 02:58:33;;;;;;;51.20;43.17;;;;;;;21.37;66.33;100248.97;5068756;28;20028;-57
2022/08/26 03:00:58;;;;;;;55.45;44.53;;;;;;;21.40;66.12;100242.69;5085433;28;20087;-57
2022/08/26 03:03:25;;;;;;;52.88;44.65;;;;;;;21.46;65.86;100246.75;5085278;28;20363;-58
2022/08/26 03:05:52;;;;;;;53.42;43.97;;;;;;;21.44;65.73;100244.19;5085431;28;20090;-57
2022/08/26 03:08:18;;;;;;;57.25;46.60;;;;;;;21.44;66.01;100249.47;5085166;28;20078;-57
2022/08/26 03:10:45;;;;;;;52.10;43.28;;;;;;;21.48;66.26;100248.34;5085199;28;20052;-57
2022/08/26 03:13:10;;;;;;;56.35;46.22;;;;;;;21.43;66.16;100250.41;5085021;28;20028;-57
2022/08/26 03:15:36;;;;;;;59.60;48.25;;;;;;;21.41;66.67;100247.00;5085030;28;20039;-56
2022/08/26 03:18:03;;;;;;;57.28;48.22;;;;;;;21.44;66.44;100253.91;5084992;28;20016;-57
2022/08/26 03:20:29;;;;;;;60.03;47.05;;;;;;;21.47;66.03;100251.09;5103853;28;20059;-58
2022/08/26 03:22:55;;;;;;;57.95;47.70;;;;;;;21.47;66.64;100246.66;5105189;28;20164;-57
2022/08/26 03:25:21;;;;;;;58.70;47.85;;;;;;;21.51;66.29;100245.56;5096311;28;20028;-57
2022/08/26 03:27:47;;;;;;;63.97;47.25;;;;;;;21.48;66.04;100229.91;5085065;28;20044;-57
2022/08/26 03:33:00;;;;;;;64.82;50.90;;;;;;;21.65;65.80;100252.69;5064838;28;20284;-57
2022/08/26 03:35:26;;;;;;;62.95;50.85;;;;;;;21.68;66.11;100241.94;5082194;28;20329;-58
2022/08/26 03:37:52;;;;;;;60.25;50.50;;;;;;;21.68;66.21;100241.13;5083277;28;20043;-58
2022/08/26 03:40:19;;;;;;;59.55;47.90;;;;;;;21.77;65.93;100243.19;5084431;28;20048;-58
2022/08/26 03:42:44;;;;;;;63.20;51.53;;;;;;;21.76;65.64;100246.75;5084555;28;20305;-58
2022/08/26 03:45:11;;;;;;;64.93;51.65;;;;;;;21.76;65.93;100241.47;5084908;28;20017;-57
2022/08/26 03:47:39;;;;;;;59.42;47.38;;;;;;;21.58;66.16;100222.34;5084430;28;21040;-57
2022/08/26 03:50:10;;;;;;;66.40;50.33;;;;;;;21.87;66.35;100260.16;5084325;28;20024;-57
2022/08/26 03:52:36;;;;;;;;;;;;;;;21.92;66.00;100245.84;5084603;28;20034;-57
2022/08/26 03:55:04;;;;;;;58.60;47.80;;;;;;;21.91;66.25;100260.00;5084041;28;19904;-57
2022/08/26 03:57:30;;;;;;;68.85;51.53;;;;;;;21.93;65.98;100258.09;5083080;28;20041;-58
2022/08/26 03:59:55;;;;;;;63.15;51.25;;;;;;;22.04;65.62;100253.03;5084074;28;20039;-57
2022/08/26 04:02:21;;;;;;;62.85;51.00;;;;;;;22.04;65.91;100253.03;5084213;28;20176;-57
2022/08/26 04:04:46;;;;;;;64.82;50.63;;;;;;;22.15;65.10;100257.69;5084020;28;20191;-57
2022/08/26 04:07:12;;;;;;;66.57;51.38;;;;;;;22.16;65.03;100259.34;5084125;28;20074;-57
2022/08/26 04:09:38;;;;;;;67.50;50.60;;;;;;;22.27;65.10;100253.44;5099728;28;20035;-57
2022/08/26 04:12:04;;;;;;;66.15;52.28;;;;;;;22.28;64.96;100255.13;5084023;28;20065;-57
2022/08/26 04:14:31;;;;;;;65.10;52.47;;;;;;;22.38;65.44;100264.22;5101851;28;20047;-57
2022/08/26 04:16:57;;;;;;;79.07;59.05;;;;;;;22.36;64.57;100256.41;5104121;28;20347;-57
2022/08/26 04:19:24;;;;;;;76.30;59.88;;;;;;;22.53;62.69;100265.03;5103701;28;20325;-58
2022/08/26 04:21:51;;;;;;;89.80;65.00;;;;;;;22.51;62.37;100261.66;5103493;28;20043;-58
2022/08/26 04:24:20;;;;;;;83.10;66.82;;;;;;;22.34;61.64;100218.69;5104069;28;20073;-58
2022/08/26 04:26:45;;;;;;;80.70;65.00;;;;;;;22.75;61.11;100262.75;5083899;28;20091;-58
2022/08/26 04:29:16;;;;;;;86.55;67.03;;;;;;;22.68;60.69;100234.22;5083634;28;20313;-58
2022/08/26 04:31:42;;;;;;;78.55;62.17;;;;;;;22.93;62.16;100266.03;5083756;28;20186;-58
2022/08/26 04:34:09;;;;;;;83.35;60.67;;;;;;;23.06;60.76;100268.75;5090225;28;20030;-58
2022/08/26 04:36:36;;;;;;;82.25;60.60;;;;;;;23.10;61.05;100270.25;5093249;28;20075;-58
2022/08/26 04:39:03;;;;;;;74.63;58.92;;;;;;;23.16;60.63;100260.22;5083607;28;20036;-58
2022/08/26 04:41:30;;;;;;;74.32;59.85;;;;;;;23.24;61.37;100273.81;5083472;28;20032;-58
2022/08/26 04:43:55;;;;;;;79.13;62.17;;;;;;;23.31;60.95;100271.63;5083380;28;20024;-57
2022/08/26 04:46:24;;;;;;;74.75;58.13;;;;;;;23.12;60.45;100227.88;5091804;28;20305;-57
2022/08/26 04:48:51;;;;;;;72.80;55.80;;;;;;;23.47;59.88;100271.44;5098722;28;20048;-57
2022/08/26 04:51:26;;;;;;;71.75;56.55;;;;;;;23.58;60.38;100271.59;5083077;28;20024;-57
2022/08/26 04:53:55;;;;;;;63.30;53.63;;;;;;;23.62;58.96;100273.09;5083609;28;20035;-57
2022/08/26 04:56:26;;;;;;;68.35;54.03;;;;;;;23.53;58.93;100239.31;5083125;28;20071;-58
2022/08/26 04:58:52;;;;;;;64.43;49.92;;;;;;;23.82;58.79;100271.75;5082177;28;20205;-58
2022/08/26 05:01:19;;;;;;;66.13;50.03;;;;;;;23.94;58.14;100275.38;5082180;28;20032;-58
2022/08/26 05:03:45;;;;;;;67.93;50.97;;;;;;;23.73;58.21;100256.50;5085900;28;20161;-58
2022/08/26 05:06:11;;;;;;;51.70;43.42;;;;;;;24.06;57.11;100279.84;5103435;28;20047;-58
2022/08/26 05:08:37;;;;;;;64.57;45.47;;;;;;;24.14;56.60;100271.38;5103004;28;20020;-58
2022/08/26 05:11:04;;;;;;;64.50;45.75;;;;;;;24.19;56.64;100279.84;5103590;28;20020;-58
2022/08/26 05:13:30;;;;;;;58.70;46.65;;;;;;;24.27;56.71;100276.66;5094190;28;20024;-58
2022/08/26 05:15:55;;;;;;;64.03;44.25;;;;;;;24.37;56.49;100277.72;5083056;28;20104;-58
2022/08/26 05:18:23;;;;;;;62.63;44.30;;;;;;;24.38;56.66;100262.69;5083145;28;20044;-58
2022/08/26 05:20:51;;;;;;;57.25;42.08;;;;;;;24.27;56.21;100244.88;5102891;28;20023;-57
2022/08/26 05:23:18;;;;;;;58.17;43.83;;;;;;;24.57;55.85;100278.97;5087563;28;20028;-57
2022/08/26 05:25:46;;;;;;;58.08;41.60;;;;;;;24.37;55.72;100239.81;5082921;28;20029;-57
2022/08/26 05:28:14;;;;;;;57.05;39.10;;;;;;;24.73;54.95;100281.41;5082930;28;20099;-57
2022/08/26 05:30:40;;;;;;;46.17;36.00;;;;;;;24.80;54.29;100279.19;5100419;28;20032;-57
2022/08/26 05:33:07;;;;;;;50.05;37.38;;;;;;;24.92;53.61;100285.41;5093472;28;20220;-57
2022/08/26 05:35:34;;;;;;;51.15;35.08;;;;;;;25.03;52.81;100276.69;5082857;28;20060;-58
2022/08/26 05:38:01;;;;;;;51.20;35.45;;;;;;;25.13;53.33;100280.34;5082780;28;20028;-58
2022/08/26 05:40:36;;;;;;;46.97;34.50;;;;;;;25.04;53.04;100247.41;5091397;28;20024;-57
2022/08/26 05:43:03;;;;;;;47.70;35.50;;;;;;;25.33;52.84;100289.50;5103118;28;20032;-58
2022/08/26 05:45:30;;;;;;;42.85;32.70;;;;;;;25.45;53.03;100285.97;5082230;28;20039;-58
2022/08/26 05:47:56;;;;;;;46.65;33.42;;;;;;;25.51;52.78;100287.31;5074022;28;20029;-58
2022/08/26 05:50:24;;;;;;;43.10;30.23;;;;;;;25.53;52.02;100284.53;5078666;28;20392;-58
2022/08/26 05:52:50;;;;;;;48.60;33.60;;;;;;;25.59;52.74;100294.69;5082345;28;20035;-58
2022/08/26 05:55:16;;;;;;;44.50;32.50;;;;;;;25.69;52.83;100295.69;5085370;28;20213;-58
2022/08/26 05:57:43;;;;;;;45.55;30.23;;;;;;;25.77;52.41;100289.81;5085410;28;20044;-58
2022/08/26 06:00:10;;;;;;;43.28;30.85;;;;;;;25.78;52.48;100291.47;5080213;28;20028;-58
2022/08/26 06:02:37;;;;;;;40.17;29.35;;;;;;;25.92;51.60;100295.75;5098777;28;20028;-59
2022/08/26 06:05:03;;;;;;;40.38;28.88;;;;;;;25.95;51.07;100288.41;5088449;28;20039;-59
2022/08/26 06:10:14;;;;;;;38.05;26.23;;;;;;;26.15;50.53;100272.78;5082352;28;20104;-58
2022/08/26 06:12:40;;;;;;;32.38;23.50;;;;;;;26.29;49.58;100290.28;5082009;28;20372;-58
2022/08/26 06:15:06;;;;;;;38.88;24.42;;;;;;;26.38;47.81;100284.28;5082445;28;20353;-59
2022/08/26 06:17:31;;;;;;;35.40;22.70;;;;;;;26.49;47.10;100286.06;5082016;28;20051;-58
2022/08/26 06:19:57;;;;;;;30.45;22.95;;;;;;;26.60;48.12;100287.91;5082297;28;20024;-58
2022/08/26 06:27:52;;;;;;;32.08;20.80;;;;;;;26.91;45.89;100281.00;5106090;28;20098;-58
2022/08/26 06:30:18;;;;;;;29.77;22.00;;;;;;;26.91;47.46;100288.97;5088107;28;20027;-58
2022/08/26 06:32:44;;;;;;;27.17;19.33;;;;;;;27.00;45.88;100282.91;5085481;28;20040;-58
2022/08/26 06:35:10;;;;;;;33.10;20.02;;;;;;;27.12;45.92;100289.06;5085953;28;20027;-58
2022/08/26 06:37:37;;;;;;;30.13;18.98;;;;;;;27.21;44.99;100290.13;5085501;28;20216;-58
2022/08/26 06:40:04;;;;;;;27.52;17.58;;;;;;;27.31;44.35;100291.03;5090109;28;20035;-59
2022/08/26 06:42:31;;;;;;;30.60;19.67;;;;;;;27.45;44.29;100292.59;5105667;28;20201;-59
2022/08/26 06:44:58;;;;;;;28.10;19.00;;;;;;;27.55;44.86;100293.53;5106062;28;20028;-58
2022/08/26 06:47:24;;;;;;;27.27;19.10;;;;;;;27.64;44.11;100289.25;5105705;28;20220;-59
2022/08/26 06:49:50;;;;;;;28.38;19.27;;;;;;;27.71;44.72;100301.06;5105278;28;20035;-59
2022/08/26 06:52:16;;;;;;;29.13;18.92;;;;;;;27.76;45.13;100287.34;5104703;28;20028;-59
2022/08/26 06:54:42;;;;;;;25.27;17.95;;;;;;;27.76;45.44;100291.84;5101856;28;20047;-59
2022/08/26 06:57:11;;;;;;;21.70;17.27;;;;;;;27.79;44.91;100291.59;5095522;28;20268;-59
2022/08/26 06:59:37;;;;;;;24.83;17.55;;;;;;;27.84;44.42;100294.72;5084824;28;20043;-59
2022/08/26 07:02:04;;;;;;;32.65;16.73;;;;;;;27.93;43.92;100296.59;5084601;28;20059;-59
2022/08/26 07:04:29;;;;;;;25.52;16.92;;;;;;;28.21;42.44;100296.94;5091139;28;20021;-59
2022/08/26 07:06:55;;;;;;;32.17;16.85;;;;;;;28.47;41.16;100297.31;5085070;28;20081;-59
2022/08/26 07:09:23;;;;;;;37.97;19.08;;;;;;;28.37;41.28;100259.97;5085342;28;20028;-59
2022/08/26 07:11:50;;;;;;;27.10;15.15;;;;;;;28.78;40.40;100296.50;5083819;28;20066;-59
2022/08/26 07:14:17;;;;;;;25.00;14.73;;;;;;;28.96;40.67;100288.66;5085008;28;20071;-60
2022/08/26 07:16:43;;;;;;;27.83;14.45;;;;;;;29.04;39.24;100294.16;5084648;28;20071;-60
2022/08/26 07:19:09;;;;;;;29.52;13.27;;;;;;;29.09;37.41;100295.44;5085239;28;20036;-59
2022/08/26 07:21:36;;;;;;;19.00;13.15;;;;;;;29.10;38.18;100294.47;5067096;28;20028;-59
2022/08/26 07:24:02;;;;;;;22.05;12.32;;;;;;;29.21;37.48;100289.97;5085023;28;20048;-59
2022/08/26 07:26:30;;;;;;;18.00;12.40;;;;;;;28.99;37.25;100246.59;5084443;28;20036;-59
2022/08/26 07:28:57;;;;;;;17.80;12.60;;;;;;;29.32;37.42;100292.56;5096255;28;20329;-59
2022/08/26 07:31:25;;;;;;;20.52;12.70;;;;;;;29.14;37.08;100252.34;5104613;28;20036;-59
2022/08/26 07:33:51;;;;;;;21.13;13.00;;;;;;;29.43;37.33;100297.75;5102389;28;20330;-59
2022/08/26 07:36:18;;;;;;;20.05;12.30;;;;;;;29.53;36.89;100294.22;5084722;28;20028;-59
2022/08/26 07:38:44;;;;;;;17.40;11.88;;;;;;;29.39;36.77;100285.66;5084518;28;20196;-59
2022/08/26 07:41:14;;;;;;;13.65;11.52;;;;;;;29.50;36.29;100289.19;5084544;28;20038;-59
2022/08/26 07:43:40;;;;;;;18.75;12.38;;;;;;;29.43;36.32;100286.22;5084345;28;20044;-59
2022/08/26 07:46:07;;;;;;;17.73;12.63;;;;;;;29.44;38.29;100286.09;5084170;28;20025;-60
2022/08/26 07:48:34;;;;;;;20.80;11.93;;;;;;;29.46;38.45;100277.09;5084333;28;20078;-58
2022/08/26 07:51:00;;;;;;;16.30;12.50;;;;;;;29.54;38.01;100287.91;5063730;28;20032;-59
2022/08/26 07:53:26;;;;;;;19.50;12.05;;;;;;;29.65;35.69;100289.59;5079162;28;20316;-60
2022/08/26 07:55:52;;;;;;;14.50;11.38;;;;;;;29.73;35.08;100290.56;5094758;28;20043;-60
2022/08/26 07:58:18;;;;;;;16.33;12.25;;;;;;;29.73;35.56;100290.56;5085495;28;20040;-59
2022/08/26 08:00:44;;;;;;;14.40;11.55;;;;;;;29.87;35.52;100291.13;5084038;28;20021;-59
2022/08/26 08:03:10;;;;;;;16.27;12.32;;;;;;;29.88;35.44;100288.31;5084411;28;20025;-59
2022/08/26 08:05:36;;;;;;;14.23;11.50;;;;;;;29.91;36.00;100282.69;5083926;28;20108;-59
2022/08/26 08:08:04;;;;;;;13.27;11.57;;;;;;;29.80;36.38;100296.19;5084016;28;20220;-60
2022/08/26 08:10:31;;;;;;;19.40;10.82;;;;;;;29.85;34.44;100288.63;5084007;28;20040;-60
2022/08/26 08:12:57;;;;;;;17.25;11.48;;;;;;;29.72;35.43;100288.88;5087000;28;20095;-60
2022/08/26 08:15:26;;;;;;;13.85;9.73;;;;;;;29.84;34.32;100284.25;5104375;28;20024;-60
2022/08/26 08:17:52;;;;;;;14.77;9.73;;;;;;;29.94;34.12;100282.44;5104154;28;20031;-59
2022/08/26 08:20:20;;;;;;;15.10;10.65;;;;;;;30.02;33.46;100278.19;5089727;28;20039;-60
2022/08/26 08:22:45;;;;;;;16.20;11.20;;;;;;;29.90;35.22;100280.16;5093432;28;20080;-59
2022/08/26 08:25:11;;;;;;;13.45;10.02;;;;;;;29.88;33.71;100280.31;5099342;28;20036;-58
2022/08/26 08:27:40;;;;;;;14.02;10.18;;;;;;;30.00;33.82;100275.66;5083561;28;20024;-59
2022/08/26 08:30:07;;;;;;;12.98;10.50;;;;;;;30.10;34.33;100279.16;5083686;28;20035;-60
2022/08/26 08:32:34;;;;;;;13.20;11.07;;;;;;;29.92;35.27;100273.69;5099842;28;20047;-60
2022/08/26 08:35:01;;;;;;;12.32;9.70;;;;;;;30.06;32.78;100282.25;5092140;28;20313;-59
2022/08/26 08:37:28;;;;;;;16.40;10.57;;;;;;;30.13;32.32;100262.00;5083477;28;20048;-59
2022/08/26 08:39:54;;;;;;;11.93;8.82;;;;;;;30.32;30.91;100277.09;5083652;28;20027;-59
2022/08/26 08:42:32;;;;;;;10.55;9.05;;;;;;;30.48;31.95;100268.47;5083690;28;20020;-59
2022/08/26 08:45:04;;;;;;;11.43;9.95;;;;;;;30.34;32.45;100227.00;5103006;28;20035;-59
2022/08/26 08:47:35;;;;;;;11.38;9.23;;;;;;;30.72;31.57;100265.25;5087224;28;20031;-57
2022/08/26 08:50:16;;;;;;;;;;;;;;;30.85;31.16;100258.72;5083818;28;20028;-57
2022/08/26 08:52:45;;;;;;;13.60;9.32;;;;;;;30.78;31.36;100221.00;5082750;28;19939;-58
2022/08/26 08:55:14;;;;;;;13.77;9.45;;;;;;;30.85;33.52;100253.38;5083223;28;20031;-58
2022/08/26 08:58:04;;;;;;;18.92;9.60;;;;;;;31.00;32.38;100262.56;5083570;28;20044;-57
2022/08/26 09:00:54;;;;;;;12.32;9.48;;;;;;;30.77;32.78;100225.53;5083155;28;20036;-59
2022/08/26 09:03:44;;;;;;;11.68;10.15;;;;;;;31.24;32.26;100267.34;5062946;28;20108;-59
2022/08/26 09:06:15;;;;;;;12.32;10.07;;;;;;;31.24;33.53;100255.78;5063306;28;20071;-59
2022/08/26 09:08:44;;;;;;;15.00;10.55;;;;;;;31.21;31.68;100242.69;5097560;28;20024;-59
2022/08/26 09:11:09;;;;;;;15.30;10.48;;;;;;;31.51;30.30;100254.81;5103373;28;20039;-59
2022/08/26 09:13:37;;;;;;;16.08;10.82;;;;;;;31.13;30.63;100217.56;5103339;28;20024;-60
2022/08/26 09:16:36;;;;;;;11.98;9.63;;;;;;;31.19;30.75;100260.75;5101424;28;20027;-59
2022/08/26 09:19:25;;;;;;;14.65;10.90;;;;;;;31.47;30.81;100257.00;5082831;28;20071;-59
2022/08/26 09:21:59;;;;;;;13.88;11.00;;;;;;;31.55;32.48;100241.97;5084544;28;20070;-58
2022/08/26 09:24:26;;;;;;;17.70;10.88;;;;;;;31.61;31.86;100244.91;5092380;28;20020;-61
2022/08/26 09:26:51;;;;;;;12.98;10.15;;;;;;;31.68;31.66;100250.47;5082881;28;20073;-59
2022/08/26 09:29:17;;;;;;;15.90;9.68;;;;;;;31.68;31.44;100245.13;5082937;28;20252;-59
2022/08/26 09:31:43;;;;;;;13.90;10.43;;;;;;;31.45;32.56;100248.25;5082934;28;20032;-58
2022/08/26 09:34:16;;;;;;;14.20;10.60;;;;;;;31.60;33.23;100247.75;5081662;28;20020;-59
2022/08/26 09:36:47;;;;;;;13.55;10.18;;;;;;;31.60;32.45;100253.94;5082777;28;20035;-59
2022/08/26 09:39:36;;;;;;;13.68;9.73;;;;;;;31.59;29.80;100248.75;5082989;28;20040;-59
2022/08/26 09:42:22;;;;;;;12.20;9.32;;;;;;;31.38;28.36;100241.00;5102673;28;20046;-60
2022/08/26 09:44:59;;;;;;;12.88;9.05;;;;;;;31.05;28.16;100209.44;5102943;28;20051;-59
2022/08/26 09:47:28;;;;;;;9.75;8.80;;;;;;;31.50;28.74;100245.97;5103008;28;20032;-59
2022/08/26 09:50:20;;;;;;;11.30;9.90;;;;;;;31.20;28.40;100204.41;5093009;28;20218;-59
2022/08/26 09:52:45;;;;;;;10.55;9.45;;;;;;;31.58;29.25;100241.69;5081615;28;20052;-59
2022/08/26 09:55:21;;;;;;;13.25;9.68;;;;;;;31.36;29.64;100206.38;5082611;28;20363;-59
2022/08/26 09:57:52;;;;;;;13.60;10.02;;;;;;;31.46;31.22;100236.56;5086723;28;20044;-59
2022/08/26 10:00:38;;;;;;;15.77;9.85;;;;;;;31.39;29.91;100240.84;5086305;28;20039;-59
2022/08/26 10:03:08;;;;;;;10.48;9.45;;;;;;;31.38;30.34;100233.81;5086201;28;20031;-59
2022/08/26 10:05:36;;;;;;;11.18;9.25;;;;;;;31.37;29.36;100234.81;5086191;28;20062;-58
2022/08/26 10:08:23;;;;;;;11.25;10.05;;;;;;;31.26;30.55;100233.22;5097214;28;20024;-59
2022/08/26 10:10:50;;;;;;;10.38;9.38;;;;;;;31.56;29.23;100236.47;5106386;28;20024;-60
2022/08/26 10:13:18;;;;;;;10.68;9.18;;;;;;;31.66;29.70;100229.19;5105235;28;20039;-59
2022/08/26 10:15:51;;;;;;;10.65;9.55;;;;;;;31.63;28.38;100228.69;5066216;28;20083;-59
2022/08/26 10:18:57;;;;;;;10.07;8.93;;;;;;;31.58;29.34;100229.16;5085924;28;20028;-59
2022/08/26 10:21:38;;;;;;;9.77;8.70;;;;;;;31.24;29.53;100237.03;5085155;28;20037;-59
2022/08/26 10:24:06;;;;;;;11.30;8.93;;;;;;;31.52;28.06;100234.28;5105700;28;20049;-57
2022/08/26 10:26:42;;;;;;;10.52;9.43;;;;;;;31.49;28.63;100219.34;5090869;28;20017;-59
2022/08/26 10:29:12;;;;;;;14.70;10.02;;;;;;;31.64;26.91;100231.22;5097879;28;20020;-58
2022/08/26 10:31:47;;;;;;;13.25;9.73;;;;;;;31.70;27.75;100224.38;5106471;28;20039;-59
2022/08/26 10:34:15;;;;;;;13.02;9.63;;;;;;;31.23;29.45;100177.31;5101807;28;20066;-59
2022/08/26 10:37:00;;;;;;;13.68;9.40;;;;;;;31.38;28.44;100190.97;5085840;28;20048;-58
2022/08/26 10:39:36;;;;;;;11.00;9.40;;;;;;;31.55;27.53;100210.69;5065674;28;20210;-59
2022/08/26 10:42:07;;;;;;;12.75;9.23;;;;;;;31.32;27.58;100175.53;5084845;28;20024;-58
2022/08/26 10:44:36;;;;;;;11.80;10.55;;;;;;;31.38;28.74;100169.56;5085462;28;20289;-59
2022/08/26 10:47:24;;;;;;;10.05;9.07;;;;;;;31.25;29.79;100209.28;5085807;28;20205;-59
2022/08/26 10:49:52;;;;;;;10.02;9.13;;;;;;;31.23;28.61;100173.81;5085531;28;20311;-60
2022/08/26 10:52:17;;;;;;;12.18;9.55;;;;;;;31.49;28.59;100198.75;5085427;28;20257;-60
2022/08/26 10:55:21;;;;;;;10.50;9.50;;;;;;;31.25;28.25;100161.94;5085356;28;20084;-59
2022/08/26 10:57:59;;;;;;;10.13;9.13;;;;;;;31.31;29.19;100196.13;5079811;28;20254;-59
2022/08/26 11:03:31;;;;;;;11.48;9.55;;;;;;;31.97;26.72;100203.78;5085493;28;20032;-58
2022/08/26 11:06:18;;;;;;;11.48;8.50;;;;;;;32.04;26.37;100201.28;5085433;28;20029;-58
2022/08/26 11:08:50;;;;;;;11.77;9.50;;;;;;;32.00;27.05;100201.63;5101737;28;20085;-59
2022/08/26 11:11:41;;;;;;;11.90;9.13;;;;;;;32.04;27.24;100188.75;5102742;28;20054;-59
2022/08/26 11:14:18;;;;;;;10.45;9.43;;;;;;;32.05;26.15;100190.41;5093966;28;20035;-58
2022/08/26 11:16:50;;;;;;;12.50;9.60;;;;;;;31.69;26.30;100155.72;5084964;28;20021;-59
2022/08/26 11:19:34;;;;;;;13.57;10.02;;;;;;;31.94;27.33;100190.69;5085187;28;20063;-60
2022/08/26 11:22:08;;;;;;;13.57;9.90;;;;;;;31.58;26.77;100162.22;5084924;28;20027;-58
2022/08/26 11:25:00;;;;;;;10.85;9.50;;;;;;;31.68;26.53;100186.19;5084801;28;20108;-60
2022/08/26 11:27:51;;;;;;;10.95;9.15;;;;;;;31.68;27.77;100180.84;5084715;28;20048;-61
2022/08/26 11:30:18;;;;;;;10.93;9.43;;;;;;;31.80;27.07;100178.75;5082049;28;20048;-61
2022/08/26 11:32:56;;;;;;;11.10;9.88;;;;;;;31.76;27.26;100178.22;5084142;28;20040;-61
2022/08/26 11:35:24;;;;;;;11.18;9.60;;;;;;;31.52;26.06;100170.00;5084436;28;20025;-60
2022/08/26 11:37:55;;;;;;;10.27;9.25;;;;;;;31.75;27.38;100175.69;5084314;28;20025;-61